createdAt,value
2017-11-08T00:00:48.638Z,98.2
2017-11-08T00:01:50.033Z,98.5
2017-11-08T00:02:51.424Z,98.6
2017-11-08T00:03:52.812Z,98.6
2017-11-08T00:04:54.204Z,98.7
2017-11-08T00:05:55.598Z,98.6
2017-11-08T00:06:56.995Z,98.7
2017-11-08T00:07:58.383Z,98.8
2017-11-08T00:08:59.785Z,98.5
2017-11-08T00:10:01.171Z,98.4
2017-11-08T00:11:02.563Z,98.2
2017-11-08T00:12:03.952Z,98.8
2017-11-08T00:13:05.345Z,98.8
2017-11-08T00:14:06.851Z,98.2
2017-11-08T00:15:08.275Z,98.2
2017-11-08T00:16:09.669Z,98.2
2017-11-08T00:17:11.061Z,98.7
2017-11-08T00:18:12.452Z,98.0
2017-11-08T00:19:13.843Z,98.4
2017-11-08T00:20:15.238Z,98.1
2017-11-08T00:21:16.632Z,98.7
2017-11-08T00:22:18.024Z,97.9
2017-11-08T00:23:19.418Z,98.8
2017-11-08T00:24:20.810Z,98.4
2017-11-08T00:25:22.208Z,98.6
2017-11-08T00:26:23.601Z,98.9
2017-11-08T00:27:24.994Z,99.0
2017-11-08T00:28:26.385Z,98.6
2017-11-08T00:29:27.778Z,98.8
2017-11-08T00:30:29.175Z,98.1
2017-11-08T00:31:30.566Z,99.0
2017-11-08T00:32:31.954Z,98.3
2017-11-08T00:33:33.345Z,98.5
2017-11-08T00:34:34.738Z,98.3
2017-11-08T00:35:36.130Z,98.6
2017-11-08T00:36:37.530Z,98.4
2017-11-08T00:37:38.924Z,98.4
2017-11-08T00:38:40.315Z,98.5
2017-11-08T00:39:41.706Z,98.5
2017-11-08T00:40:43.097Z,98.4
2017-11-08T00:41:44.489Z,98.3
2017-11-08T00:42:45.882Z,98.2
2017-11-08T00:43:47.276Z,98.5
2017-11-08T00:44:48.675Z,98.3
2017-11-08T00:45:50.061Z,98.3
2017-11-08T00:46:51.452Z,98.5
2017-11-08T00:47:52.840Z,98.2
2017-11-08T00:48:54.235Z,98.4
2017-11-08T00:49:55.628Z,98.3
2017-11-08T00:50:57.026Z,98.7
2017-11-08T00:51:58.417Z,98.7
2017-11-08T00:52:59.807Z,98.3
2017-11-08T00:54:01.200Z,98.7
2017-11-08T00:55:02.590Z,98.8
2017-11-08T00:56:03.985Z,98.0
2017-11-08T00:57:05.378Z,98.1
2017-11-08T00:58:06.775Z,98.0
2017-11-08T00:59:08.170Z,97.8
2017-11-08T01:00:09.559Z,98.1
2017-11-08T01:01:10.961Z,97.6
2017-11-08T01:02:12.402Z,97.6
2017-11-08T01:03:13.792Z,98.0
2017-11-08T01:04:15.185Z,97.8
2017-11-08T01:05:16.580Z,97.7
2017-11-08T01:06:17.977Z,97.8
2017-11-08T01:07:19.366Z,97.9
2017-11-08T01:08:20.756Z,97.5
2017-11-08T01:09:22.149Z,97.3
2017-11-08T01:10:23.543Z,97.5
2017-11-08T01:11:24.934Z,97.5
2017-11-08T01:12:26.329Z,97.5
2017-11-08T01:13:27.721Z,97.4
2017-11-08T01:14:29.110Z,97.9
2017-11-08T01:15:30.503Z,98.0
2017-11-08T01:16:31.894Z,97.4
2017-11-08T01:17:33.291Z,97.7
2017-11-08T01:18:34.678Z,97.3
2017-11-08T01:19:36.070Z,97.4
2017-11-08T01:20:37.464Z,97.5
2017-11-08T01:21:38.854Z,97.5
2017-11-08T01:22:40.247Z,97.5
2017-11-08T01:23:41.635Z,97.3
2017-11-08T01:24:43.028Z,97.4
2017-11-08T01:25:44.419Z,97.1
2017-11-08T01:26:45.813Z,97.4
2017-11-08T01:27:47.206Z,96.6
2017-11-08T01:28:48.593Z,96.5
2017-11-08T01:29:49.986Z,96.8
2017-11-08T01:30:51.381Z,96.5
2017-11-08T01:31:52.781Z,97.1
2017-11-08T01:32:54.167Z,97.2
2017-11-08T01:33:55.561Z,97.4
2017-11-08T01:34:56.959Z,96.9
2017-11-08T01:35:58.351Z,97.1
2017-11-08T01:36:59.745Z,97.3
2017-11-08T01:38:01.133Z,97.3
2017-11-08T01:39:02.528Z,96.9
2017-11-08T01:40:03.926Z,97.1
2017-11-08T01:41:05.324Z,97.3
2017-11-08T01:42:06.717Z,97.0
2017-11-08T01:43:08.110Z,97.1
2017-11-08T01:44:09.501Z,97.4
2017-11-08T01:45:10.902Z,97.6
2017-11-08T01:46:12.288Z,97.1
2017-11-08T01:47:13.681Z,97.1
2017-11-08T01:48:15.075Z,97.3
2017-11-08T01:49:16.473Z,97.4
2017-11-08T01:50:17.865Z,97.1
2017-11-08T01:51:19.253Z,97.2
2017-11-08T01:52:20.651Z,96.8
2017-11-08T01:53:22.061Z,97.0
2017-11-08T01:54:23.449Z,96.6
2017-11-08T01:55:24.838Z,96.6
2017-11-08T01:56:26.229Z,96.6
2017-11-08T01:57:27.623Z,96.6
2017-11-08T01:58:29.022Z,96.8
2017-11-08T01:59:30.408Z,97.3
2017-11-08T02:00:31.800Z,97.2
2017-11-08T02:01:33.208Z,97.0
2017-11-08T02:02:34.588Z,97.0
2017-11-08T02:03:35.984Z,97.0
2017-11-08T02:04:37.373Z,97.0
2017-11-08T02:05:38.766Z,96.8
2017-11-08T02:06:40.159Z,97.3
2017-11-08T02:07:41.561Z,97.2
2017-11-08T02:08:42.947Z,97.4
2017-11-08T02:09:44.336Z,96.9
2017-11-08T02:10:45.731Z,97.2
2017-11-08T02:11:47.122Z,97.4
2017-11-08T02:12:48.519Z,97.1
2017-11-08T02:13:49.909Z,96.9
2017-11-08T02:14:51.305Z,97.2
2017-11-08T02:15:52.699Z,97.2
2017-11-08T02:16:54.096Z,97.5
2017-11-08T02:17:55.489Z,97.3
2017-11-08T02:18:56.880Z,97.3
2017-11-08T02:19:58.280Z,97.2
2017-11-08T02:20:59.669Z,97.2
2017-11-08T02:22:01.061Z,97.1
2017-11-08T02:23:02.455Z,97.4
2017-11-08T02:24:03.848Z,97.3
2017-11-08T02:25:05.242Z,97.8
2017-11-08T02:26:06.638Z,97.1
2017-11-08T02:27:08.031Z,97.5
2017-11-08T02:28:09.430Z,97.2
2017-11-08T02:29:10.815Z,97.2
2017-11-08T02:30:12.207Z,97.0
2017-11-08T02:31:13.602Z,96.9
2017-11-08T02:32:15.000Z,97.2
2017-11-08T02:33:16.386Z,97.4
2017-11-08T02:34:17.775Z,97.0
2017-11-08T02:35:19.171Z,97.3
2017-11-08T02:36:20.569Z,97.3
2017-11-08T02:37:21.965Z,97.0
2017-11-08T02:38:23.357Z,96.8
2017-11-08T02:39:24.748Z,97.3
2017-11-08T02:40:26.138Z,96.8
2017-11-08T02:41:27.533Z,97.2
2017-11-08T02:42:28.925Z,97.3
2017-11-08T02:43:30.319Z,97.4
2017-11-08T02:44:31.715Z,97.3
2017-11-08T02:45:33.115Z,97.6
2017-11-08T02:46:34.503Z,97.4
2017-11-08T02:47:35.897Z,97.5
2017-11-08T02:48:37.289Z,97.4
2017-11-08T02:49:38.682Z,98.0
2017-11-08T02:50:40.074Z,97.7
2017-11-08T02:51:41.464Z,98.0
2017-11-08T02:52:42.861Z,98.1
2017-11-08T02:53:44.252Z,98.1
2017-11-08T02:54:45.645Z,98.0
2017-11-08T02:55:47.043Z,97.9
2017-11-08T02:56:48.428Z,97.5
2017-11-08T02:57:49.822Z,98.1
2017-11-08T02:58:51.215Z,98.1
2017-11-08T02:59:52.610Z,98.3
2017-11-08T03:00:54.003Z,98.1
2017-11-08T03:01:55.394Z,98.1
2017-11-08T03:02:56.786Z,98.3
2017-11-08T03:03:58.181Z,98.3
2017-11-08T03:04:59.571Z,98.2
2017-11-08T03:06:00.966Z,98.8
2017-11-08T03:07:02.360Z,98.3
2017-11-08T03:08:03.755Z,98.3
2017-11-08T03:09:05.147Z,98.5
2017-11-08T03:10:06.546Z,98.7
2017-11-08T03:11:07.931Z,98.3
2017-11-08T03:12:09.323Z,98.2
2017-11-08T03:13:10.715Z,98.3
2017-11-08T03:14:12.110Z,98.4
2017-11-08T03:15:13.505Z,98.3
2017-11-08T03:16:14.897Z,98.4
2017-11-08T03:17:16.286Z,98.5
2017-11-08T03:18:17.679Z,98.5
2017-11-08T03:19:19.073Z,98.4
2017-11-08T03:20:20.469Z,98.9
2017-11-08T03:21:21.861Z,99.0
2017-11-08T03:22:23.257Z,99.4
2017-11-08T03:23:24.648Z,99.4
2017-11-08T03:24:26.037Z,99.4
2017-11-08T03:25:27.431Z,99.1
2017-11-08T03:26:28.825Z,99.0
2017-11-08T03:27:30.219Z,99.0
2017-11-08T03:28:31.617Z,99.3
2017-11-08T03:29:33.011Z,99.6
2017-11-08T03:30:34.405Z,99.6
2017-11-08T03:31:35.796Z,99.7
2017-11-08T03:32:37.192Z,100.0
2017-11-08T03:33:38.591Z,100.0
2017-11-08T03:34:39.989Z,100.0
2017-11-08T03:35:41.385Z,100.0
2017-11-08T03:36:42.785Z,99.9
2017-11-08T03:37:44.173Z,100.0
2017-11-08T03:38:45.563Z,100.0
2017-11-08T03:39:46.958Z,100.0
2017-11-08T03:40:48.351Z,100.0
2017-11-08T03:41:49.745Z,100.0
2017-11-08T03:42:51.140Z,100.0
2017-11-08T03:43:52.535Z,100.0
2017-11-08T03:44:53.925Z,100.0
2017-11-08T03:45:55.320Z,100.0
2017-11-08T03:46:56.712Z,100.0
2017-11-08T03:47:58.106Z,100.0
2017-11-08T03:48:59.499Z,100.0
2017-11-08T03:50:00.897Z,100.0
2017-11-08T03:51:02.288Z,100.0
2017-11-08T03:52:03.688Z,100.0
2017-11-08T03:53:05.076Z,100.0
2017-11-08T03:54:06.467Z,100.0
2017-11-08T03:55:07.861Z,100.0
2017-11-08T03:56:09.254Z,100.0
2017-11-08T03:57:10.646Z,100.0
2017-11-08T03:58:12.043Z,100.0
2017-11-08T03:59:15.017Z,100.0
2017-11-08T04:00:16.409Z,100.0
2017-11-08T04:01:17.804Z,100.0
2017-11-08T04:02:19.196Z,100.0
2017-11-08T04:03:20.591Z,100.0
2017-11-08T04:04:21.984Z,100.0
2017-11-08T04:05:23.378Z,100.0
2017-11-08T04:06:24.768Z,100.0
2017-11-08T04:07:26.159Z,100.0
2017-11-08T04:08:27.553Z,100.0
2017-11-08T04:09:28.944Z,100.0
2017-11-08T04:10:30.340Z,100.0
2017-11-08T04:11:31.733Z,100.0
2017-11-08T04:12:33.128Z,100.0
2017-11-08T04:13:34.522Z,100.0
2017-11-08T04:14:35.917Z,100.0
2017-11-08T04:15:37.309Z,100.0
2017-11-08T04:16:38.703Z,100.0
2017-11-08T04:17:40.097Z,100.0
2017-11-08T04:18:41.497Z,100.0
2017-11-08T04:19:42.897Z,100.0
2017-11-08T04:20:44.344Z,100.0
2017-11-08T04:21:45.740Z,100.0
2017-11-08T04:22:47.135Z,100.0
2017-11-08T04:23:48.528Z,100.0
2017-11-08T04:24:49.923Z,100.0
2017-11-08T04:25:51.332Z,100.0
2017-11-08T04:26:52.720Z,100.0
2017-11-08T04:27:54.113Z,100.0
2017-11-08T04:28:55.506Z,100.0
2017-11-08T04:29:56.899Z,100.0
2017-11-08T04:30:58.293Z,100.0
2017-11-08T04:31:59.684Z,100.0
2017-11-08T04:33:01.083Z,100.0
2017-11-08T04:34:02.481Z,100.0
2017-11-08T04:35:03.875Z,100.0
2017-11-08T04:36:05.268Z,100.0
2017-11-08T04:37:06.662Z,100.0
2017-11-08T04:38:08.053Z,100.0
2017-11-08T04:39:09.452Z,100.0
2017-11-08T04:40:10.845Z,100.0
2017-11-08T04:41:12.239Z,100.0
2017-11-08T04:42:13.632Z,100.0
2017-11-08T04:43:15.024Z,100.0
2017-11-08T04:44:16.426Z,100.0
2017-11-08T04:45:17.811Z,100.0
2017-11-08T04:46:19.205Z,100.0
2017-11-08T04:47:20.597Z,100.0
2017-11-08T04:48:21.990Z,100.0
2017-11-08T04:49:23.382Z,100.0
2017-11-08T04:50:24.776Z,100.0
2017-11-08T04:51:26.166Z,100.0
2017-11-08T04:52:27.562Z,100.0
2017-11-08T04:53:28.957Z,100.0
2017-11-08T04:54:30.352Z,100.0
2017-11-08T04:55:31.749Z,100.0
2017-11-08T04:56:33.145Z,100.0
2017-11-08T04:57:34.534Z,100.0
2017-11-08T04:58:35.926Z,100.0
2017-11-08T04:59:37.320Z,100.0
2017-11-08T05:00:38.741Z,100.0
2017-11-08T05:01:40.134Z,100.0
2017-11-08T05:02:41.528Z,100.0
2017-11-08T05:03:42.923Z,100.0
2017-11-08T05:04:44.311Z,100.0
2017-11-08T05:05:45.700Z,100.0
2017-11-08T05:06:47.095Z,100.0
2017-11-08T05:07:48.491Z,100.0
2017-11-08T05:08:49.886Z,100.0
2017-11-08T05:09:51.282Z,100.0
2017-11-08T05:10:52.675Z,100.0
2017-11-08T05:11:54.068Z,100.0
2017-11-08T05:12:55.464Z,100.0
2017-11-08T05:13:56.856Z,100.0
2017-11-08T05:14:58.252Z,100.0
2017-11-08T05:15:59.649Z,100.0
2017-11-08T05:17:01.047Z,100.0
2017-11-08T05:18:02.436Z,100.0
2017-11-08T05:19:03.831Z,100.0
2017-11-08T05:20:05.239Z,100.0
2017-11-08T05:21:06.616Z,100.0
2017-11-08T05:22:08.016Z,100.0
2017-11-08T05:23:09.416Z,100.0
2017-11-08T05:24:10.808Z,100.0
2017-11-08T05:25:12.197Z,100.0
2017-11-08T05:26:13.590Z,100.0
2017-11-08T05:27:14.985Z,100.0
2017-11-08T05:28:16.377Z,100.0
2017-11-08T05:29:17.771Z,100.0
2017-11-08T05:30:19.164Z,100.0
2017-11-08T05:31:20.565Z,100.0
2017-11-08T05:32:21.956Z,100.0
2017-11-08T05:33:23.350Z,100.0
2017-11-08T05:34:24.742Z,100.0
2017-11-08T05:35:26.135Z,100.0
2017-11-08T05:36:27.530Z,100.0
2017-11-08T05:37:28.924Z,100.0
2017-11-08T05:38:30.320Z,100.0
2017-11-08T05:39:31.716Z,100.0
2017-11-08T05:40:33.108Z,100.0
2017-11-08T05:41:34.502Z,100.0
2017-11-08T05:42:35.896Z,100.0
2017-11-08T05:43:37.291Z,100.0
2017-11-08T05:44:38.685Z,100.0
2017-11-08T05:45:40.087Z,100.0
2017-11-08T05:46:41.478Z,100.0
2017-11-08T05:47:42.870Z,100.0
2017-11-08T05:48:44.263Z,100.0
2017-11-08T05:49:45.657Z,100.0
2017-11-08T05:50:47.053Z,100.0
2017-11-08T05:51:48.445Z,100.0
2017-11-08T05:52:49.840Z,100.0
2017-11-08T05:53:51.231Z,100.0
2017-11-08T05:54:52.623Z,100.0
2017-11-08T05:55:54.015Z,100.0
2017-11-08T05:56:55.410Z,100.0
2017-11-08T05:57:56.803Z,100.0
2017-11-08T05:58:58.201Z,100.0
2017-11-08T05:59:59.594Z,100.0
2017-11-08T06:01:00.986Z,100.0
2017-11-08T06:02:02.420Z,100.0
2017-11-08T06:03:03.776Z,100.0
2017-11-08T06:04:05.169Z,100.0
2017-11-08T06:05:06.560Z,100.0
2017-11-08T06:06:07.957Z,100.0
2017-11-08T06:07:09.353Z,100.0
2017-11-08T06:08:10.744Z,100.0
2017-11-08T06:09:12.138Z,100.0
2017-11-08T06:10:13.528Z,100.0
2017-11-08T06:11:14.922Z,100.0
2017-11-08T06:12:16.315Z,100.0
2017-11-08T06:13:17.716Z,100.0
2017-11-08T06:14:19.105Z,100.0
2017-11-08T06:15:20.494Z,100.0
2017-11-08T06:16:21.918Z,100.0
2017-11-08T06:17:23.312Z,100.0
2017-11-08T06:18:24.704Z,100.0
2017-11-08T06:19:26.108Z,100.0
2017-11-08T06:20:27.503Z,100.0
2017-11-08T06:21:28.925Z,100.0
2017-11-08T06:22:30.317Z,100.0
2017-11-08T06:23:31.714Z,100.0
2017-11-08T06:24:33.106Z,100.0
2017-11-08T06:25:34.502Z,100.0
2017-11-08T06:26:35.895Z,100.0
2017-11-08T06:27:37.289Z,100.0
2017-11-08T06:28:38.684Z,100.0
2017-11-08T06:29:40.074Z,100.0
2017-11-08T06:30:41.467Z,100.0
2017-11-08T06:31:42.861Z,100.0
2017-11-08T06:32:44.258Z,100.0
2017-11-08T06:33:45.652Z,100.0
2017-11-08T06:34:47.050Z,100.0
2017-11-08T06:35:48.449Z,100.0
2017-11-08T06:36:49.843Z,100.0
2017-11-08T06:37:51.236Z,100.0
2017-11-08T06:38:52.631Z,100.0
2017-11-08T06:39:54.028Z,100.0
2017-11-08T06:40:55.417Z,100.0
2017-11-08T06:41:56.816Z,100.0
2017-11-08T06:42:58.216Z,100.0
2017-11-08T06:43:59.608Z,100.0
2017-11-08T06:45:01.003Z,100.0
2017-11-08T06:46:02.408Z,100.0
2017-11-08T06:47:03.805Z,100.0
2017-11-08T06:48:05.226Z,100.0
2017-11-08T06:49:06.627Z,100.0
2017-11-08T06:50:08.025Z,100.0
2017-11-08T06:51:09.415Z,100.0
2017-11-08T06:52:10.807Z,100.0
2017-11-08T06:53:12.202Z,100.0
2017-11-08T06:54:13.600Z,100.0
2017-11-08T06:55:15.003Z,100.0
2017-11-08T06:56:16.401Z,100.0
2017-11-08T06:57:17.799Z,100.0
2017-11-08T06:58:19.196Z,100.0
2017-11-08T06:59:20.586Z,100.0
2017-11-08T07:00:21.981Z,100.0
2017-11-08T07:01:23.376Z,100.0
2017-11-08T07:02:24.772Z,100.0
2017-11-08T07:03:26.174Z,100.0
2017-11-08T07:04:27.569Z,100.0
2017-11-08T07:05:28.962Z,100.0
2017-11-08T07:06:30.360Z,100.0
2017-11-08T07:07:31.754Z,100.0
2017-11-08T07:08:33.148Z,100.0
2017-11-08T07:09:34.547Z,100.0
2017-11-08T07:10:35.947Z,100.0
2017-11-08T07:11:37.342Z,100.0
2017-11-08T07:12:38.741Z,100.0
2017-11-08T07:13:40.138Z,100.0
2017-11-08T07:14:41.532Z,100.0
2017-11-08T07:15:42.926Z,100.0
2017-11-08T07:16:44.331Z,100.0
2017-11-08T07:17:45.740Z,100.0
2017-11-08T07:18:47.138Z,100.0
2017-11-08T07:19:48.533Z,100.0
2017-11-08T07:20:49.928Z,100.0
2017-11-08T07:21:51.325Z,100.0
2017-11-08T07:22:52.721Z,100.0
2017-11-08T07:23:54.119Z,100.0
2017-11-08T07:24:55.526Z,100.0
2017-11-08T07:25:56.923Z,100.0
2017-11-08T07:26:58.320Z,100.0
2017-11-08T07:27:59.713Z,100.0
2017-11-08T07:29:01.113Z,100.0
2017-11-08T07:30:02.512Z,100.0
2017-11-08T07:31:03.908Z,100.0
2017-11-08T07:32:05.308Z,100.0
2017-11-08T07:33:06.711Z,100.0
2017-11-08T07:34:08.101Z,100.0
2017-11-08T07:35:09.503Z,100.0
2017-11-08T07:36:10.894Z,100.0
2017-11-08T07:37:12.293Z,100.0
2017-11-08T07:38:13.687Z,100.0
2017-11-08T07:39:15.096Z,100.0
2017-11-08T07:40:16.493Z,100.0
2017-11-08T07:41:17.890Z,100.0
2017-11-08T07:42:19.288Z,100.0
2017-11-08T07:43:20.683Z,100.0
2017-11-08T07:44:22.085Z,100.0
2017-11-08T07:45:23.540Z,100.0
2017-11-08T07:46:24.896Z,100.0
2017-11-08T07:47:26.296Z,100.0
2017-11-08T07:48:27.695Z,100.0
2017-11-08T07:49:29.091Z,100.0
2017-11-08T07:50:30.490Z,100.0
2017-11-08T07:51:31.885Z,100.0
2017-11-08T07:52:33.285Z,100.0
2017-11-08T07:53:34.685Z,100.0
2017-11-08T07:54:36.082Z,100.0
2017-11-08T07:55:37.476Z,100.0
2017-11-08T07:56:38.874Z,100.0
2017-11-08T07:57:40.273Z,100.0
2017-11-08T07:58:41.670Z,100.0
2017-11-08T07:59:43.069Z,100.0
2017-11-08T08:00:44.472Z,100.0
2017-11-08T08:01:45.873Z,100.0
2017-11-08T08:02:47.277Z,100.0
2017-11-08T08:03:48.675Z,100.0
2017-11-08T08:04:50.076Z,100.0
2017-11-08T08:05:51.476Z,100.0
2017-11-08T08:06:52.874Z,100.0
2017-11-08T08:07:54.270Z,100.0
2017-11-08T08:08:55.666Z,100.0
2017-11-08T08:09:57.063Z,100.0
2017-11-08T08:10:58.462Z,100.0
2017-11-08T08:11:59.863Z,100.0
2017-11-08T08:13:01.260Z,100.0
2017-11-08T08:14:02.658Z,100.0
2017-11-08T08:15:04.056Z,100.0
2017-11-08T08:16:05.461Z,100.0
2017-11-08T08:17:06.854Z,100.0
2017-11-08T08:18:08.254Z,100.0
2017-11-08T08:19:09.651Z,100.0
2017-11-08T08:20:11.053Z,100.0
2017-11-08T08:21:12.450Z,100.0
2017-11-08T08:22:13.847Z,100.0
2017-11-08T08:23:15.247Z,100.0
2017-11-08T08:24:16.650Z,100.0
2017-11-08T08:25:18.042Z,100.0
2017-11-08T08:26:19.439Z,100.0
2017-11-08T08:27:20.840Z,100.0
2017-11-08T08:28:22.239Z,100.0
2017-11-08T08:29:23.642Z,100.0
2017-11-08T08:30:25.044Z,100.0
2017-11-08T08:31:26.442Z,100.0
2017-11-08T08:32:27.842Z,100.0
2017-11-08T08:33:29.236Z,100.0
2017-11-08T08:34:30.640Z,100.0
2017-11-08T08:35:32.039Z,100.0
2017-11-08T08:36:33.448Z,100.0
2017-11-08T08:37:34.845Z,100.0
2017-11-08T08:38:36.245Z,100.0
2017-11-08T08:39:37.648Z,100.0
2017-11-08T08:40:39.050Z,100.0
2017-11-08T08:41:40.446Z,100.0
2017-11-08T08:42:41.842Z,100.0
2017-11-08T08:43:43.239Z,100.0
2017-11-08T08:44:44.641Z,100.0
2017-11-08T08:45:46.039Z,100.0
2017-11-08T08:46:47.443Z,100.0
2017-11-08T08:47:48.841Z,100.0
2017-11-08T08:48:50.246Z,100.0
2017-11-08T08:49:51.645Z,100.0
2017-11-08T08:50:53.050Z,100.0
2017-11-08T08:51:54.448Z,100.0
2017-11-08T08:52:55.850Z,100.0
2017-11-08T08:53:57.248Z,100.0
2017-11-08T08:54:58.648Z,100.0
2017-11-08T08:56:00.047Z,100.0
2017-11-08T08:57:01.447Z,100.0
2017-11-08T08:58:02.845Z,100.0
2017-11-08T08:59:04.246Z,100.0
2017-11-08T09:00:05.647Z,100.0
2017-11-08T09:01:07.047Z,100.0
2017-11-08T09:02:08.441Z,100.0
2017-11-08T09:03:09.840Z,100.0
2017-11-08T09:04:11.242Z,100.0
2017-11-08T09:05:12.646Z,100.0
2017-11-08T09:06:14.047Z,100.0
2017-11-08T09:07:15.446Z,100.0
2017-11-08T09:08:16.841Z,100.0
2017-11-08T09:09:18.242Z,100.0
2017-11-08T09:10:19.645Z,100.0
2017-11-08T09:11:21.043Z,100.0
2017-11-08T09:12:22.444Z,100.0
2017-11-08T09:13:23.847Z,100.0
2017-11-08T09:14:25.244Z,100.0
2017-11-08T09:15:26.646Z,100.0
2017-11-08T09:16:28.051Z,100.0
2017-11-08T09:17:29.445Z,100.0
2017-11-08T09:18:30.846Z,100.0
2017-11-08T09:19:32.244Z,100.0
2017-11-08T09:20:33.642Z,100.0
2017-11-08T09:21:35.038Z,100.0
2017-11-08T09:22:36.432Z,100.0
2017-11-08T09:23:37.830Z,100.0
2017-11-08T09:24:39.231Z,100.0
2017-11-08T09:25:40.634Z,100.0
2017-11-08T09:26:42.082Z,100.0
2017-11-08T09:27:43.479Z,100.0
2017-11-08T09:28:44.877Z,100.0
2017-11-08T09:29:46.279Z,100.0
2017-11-08T09:30:47.688Z,100.0
2017-11-08T09:31:49.079Z,100.0
2017-11-08T09:32:50.478Z,100.0
2017-11-08T09:33:51.878Z,100.0
2017-11-08T09:34:53.276Z,100.0
2017-11-08T09:35:54.673Z,100.0
2017-11-08T09:36:56.071Z,100.0
2017-11-08T09:37:57.469Z,100.0
2017-11-08T09:38:58.864Z,99.9
2017-11-08T09:40:00.268Z,100.0
2017-11-08T09:41:01.670Z,100.0
2017-11-08T09:42:03.075Z,100.0
2017-11-08T09:43:04.474Z,100.0
2017-11-08T09:44:05.874Z,100.0
2017-11-08T09:45:07.272Z,99.9
2017-11-08T09:46:08.671Z,100.0
2017-11-08T09:47:10.071Z,100.0
2017-11-08T09:48:11.479Z,100.0
2017-11-08T09:49:12.870Z,100.0
2017-11-08T09:50:14.269Z,100.0
2017-11-08T09:51:15.669Z,100.0
2017-11-08T09:52:17.074Z,100.0
2017-11-08T09:53:18.475Z,99.8
2017-11-08T09:54:19.872Z,99.9
2017-11-08T09:55:21.273Z,100.0
2017-11-08T09:56:22.676Z,100.0
2017-11-08T09:57:24.075Z,100.0
2017-11-08T09:58:25.471Z,100.0
2017-11-08T09:59:26.871Z,100.0
2017-11-08T10:00:28.270Z,100.0
2017-11-08T10:01:29.670Z,100.0
2017-11-08T10:02:31.071Z,100.0
2017-11-08T10:03:32.468Z,99.8
2017-11-08T10:04:33.861Z,100.0
2017-11-08T10:05:35.268Z,100.0
2017-11-08T10:06:36.736Z,100.0
2017-11-08T10:07:38.065Z,100.0
2017-11-08T10:08:39.490Z,100.0
2017-11-08T10:09:40.861Z,100.0
2017-11-08T10:10:42.263Z,100.0
2017-11-08T10:11:43.665Z,100.0
2017-11-08T10:12:45.094Z,100.0
2017-11-08T10:13:46.489Z,100.0
2017-11-08T10:14:47.918Z,100.0
2017-11-08T10:15:49.262Z,100.0
2017-11-08T10:16:50.667Z,100.0
2017-11-08T10:17:52.080Z,100.0
2017-11-08T10:18:53.509Z,100.0
2017-11-08T10:19:54.874Z,100.0
2017-11-08T10:20:56.274Z,100.0
2017-11-08T10:21:57.677Z,100.0
2017-11-08T10:22:59.076Z,100.0
2017-11-08T10:24:00.477Z,100.0
2017-11-08T10:25:01.878Z,100.0
2017-11-08T10:26:03.288Z,100.0
2017-11-08T10:27:04.691Z,100.0
2017-11-08T10:28:06.086Z,100.0
2017-11-08T10:29:07.484Z,100.0
2017-11-08T10:30:08.883Z,100.0
2017-11-08T10:31:10.281Z,100.0
2017-11-08T10:32:11.678Z,100.0
2017-11-08T10:33:13.613Z,100.0
2017-11-08T10:34:15.013Z,100.0
2017-11-08T10:35:16.420Z,100.0
2017-11-08T10:36:17.811Z,100.0
2017-11-08T10:37:19.210Z,100.0
2017-11-08T10:38:20.608Z,100.0
2017-11-08T10:39:22.014Z,100.0
2017-11-08T10:40:23.410Z,100.0
2017-11-08T10:41:24.807Z,99.9
